createdAt,value
2023-07-12T00:01:37.314Z,26.63
2023-07-12T00:04:08.491Z,26.63
2023-07-12T00:06:41.136Z,26.63
2023-07-12T00:09:15.877Z,26.61
2023-07-12T00:11:46.644Z,26.63
2023-07-12T00:14:17.348Z,26.62
2023-07-12T00:16:48.129Z,26.62
2023-07-12T00:19:20.016Z,26.62
2023-07-12T00:21:50.861Z,26.61
2023-07-12T00:24:21.561Z,26.60
2023-07-12T00:26:52.205Z,26.60
2023-07-12T00:29:23.025Z,26.60
2023-07-12T00:31:53.697Z,26.60
2023-07-12T00:34:24.363Z,26.60
2023-07-12T00:36:55.135Z,26.60
2023-07-12T00:39:25.873Z,26.59
2023-07-12T00:42:11.024Z,26.57
2023-07-12T00:44:48.486Z,26.57
2023-07-12T00:47:19.775Z,26.56
2023-07-12T00:49:52.843Z,26.57
2023-07-12T00:52:24.546Z,26.56
2023-07-12T00:54:58.079Z,26.57
2023-07-12T00:57:31.316Z,26.57
2023-07-12T01:00:05.736Z,26.56
2023-07-12T01:02:36.706Z,26.57
2023-07-12T01:05:08.428Z,26.55
2023-07-12T01:07:39.491Z,26.55
2023-07-12T01:10:11.450Z,26.56
2023-07-12T01:12:42.316Z,26.54
2023-07-12T01:15:14.699Z,26.57
2023-07-12T01:17:45.413Z,26.57
2023-07-12T01:20:16.489Z,26.56
2023-07-12T01:22:47.265Z,26.56
2023-07-12T01:25:17.935Z,26.57
2023-07-12T01:27:48.725Z,26.57
2023-07-12T01:30:22.891Z,26.56
2023-07-12T01:32:54.808Z,26.57
2023-07-12T01:35:26.270Z,26.58
2023-07-12T01:37:57.989Z,26.58
2023-07-12T01:40:28.666Z,26.56
2023-07-12T01:42:59.431Z,26.55
2023-07-12T01:45:30.104Z,26.53
2023-07-12T01:48:02.233Z,26.50
2023-07-12T01:50:33.095Z,26.48
2023-07-12T01:53:04.741Z,26.47
2023-07-12T01:55:36.022Z,26.45
2023-07-12T01:58:06.697Z,26.43
2023-07-12T02:00:37.516Z,26.43
2023-07-12T02:03:08.491Z,26.40
2023-07-12T02:05:39.641Z,26.37
2023-07-12T02:08:10.796Z,26.39
2023-07-12T02:10:42.097Z,26.40
2023-07-12T02:13:13.107Z,26.41
2023-07-12T02:15:44.409Z,26.43
2023-07-12T02:18:15.775Z,26.45
2023-07-12T02:20:48.366Z,26.45
2023-07-12T02:23:19.186Z,26.47
2023-07-12T02:25:51.350Z,26.49
2023-07-12T02:28:22.057Z,26.52
2023-07-12T02:30:52.905Z,26.54
2023-07-12T02:33:23.955Z,26.55
2023-07-12T02:35:55.042Z,26.58
2023-07-12T02:38:25.708Z,26.58
2023-07-12T02:40:56.469Z,26.59
2023-07-12T02:43:27.288Z,26.58
2023-07-12T02:45:58.073Z,26.58
2023-07-12T02:48:28.858Z,26.58
2023-07-12T02:50:59.850Z,26.59
2023-07-12T02:53:30.917Z,26.59
2023-07-12T02:56:01.591Z,26.59
2023-07-12T02:58:32.376Z,26.57
2023-07-12T03:01:03.981Z,26.55
2023-07-12T03:03:34.966Z,26.51
2023-07-12T03:06:10.913Z,26.49
2023-07-12T03:08:41.688Z,26.47
2023-07-12T03:11:12.950Z,26.47
2023-07-12T03:13:43.902Z,26.47
2023-07-12T03:16:14.598Z,26.47
2023-07-12T03:18:45.482Z,26.48
2023-07-12T03:21:16.569Z,26.47
2023-07-12T03:23:47.360Z,26.45
2023-07-12T03:26:19.160Z,26.45
2023-07-12T03:28:48.216Z,26.45
2023-07-12T03:31:19.608Z,26.44
2023-07-12T03:33:50.963Z,26.42
2023-07-12T03:36:25.920Z,26.40
2023-07-12T03:38:57.260Z,26.38
2023-07-12T03:41:28.479Z,26.35
2023-07-12T03:43:59.343Z,26.34
2023-07-12T03:46:30.001Z,26.34
2023-07-12T03:49:00.821Z,26.35
2023-07-12T03:51:31.513Z,26.35
2023-07-12T03:54:02.283Z,26.33
2023-07-12T03:56:32.959Z,26.29
2023-07-12T03:59:03.951Z,26.28
2023-07-12T04:01:34.733Z,26.27
2023-07-12T04:04:06.065Z,26.24
2023-07-12T04:06:36.714Z,26.22
2023-07-12T04:09:07.608Z,26.23
2023-07-12T04:11:39.925Z,26.22
2023-07-12T04:14:11.037Z,26.22
2023-07-12T04:16:41.876Z,26.24
2023-07-12T04:19:13.605Z,26.26
2023-07-12T04:21:44.322Z,26.20
2023-07-12T04:24:15.067Z,26.19
2023-07-12T04:26:45.739Z,26.18
2023-07-12T04:29:16.543Z,26.20
2023-07-12T04:31:47.195Z,26.21
2023-07-12T04:34:29.631Z,26.23
2023-07-12T04:37:09.269Z,26.27
2023-07-12T04:39:39.863Z,26.29
2023-07-12T04:42:11.082Z,26.33
2023-07-12T04:44:41.949Z,26.36
2023-07-12T04:47:13.721Z,26.39
2023-07-12T04:49:45.144Z,26.42
2023-07-12T04:52:16.008Z,26.45
2023-07-12T04:54:47.622Z,26.47
2023-07-12T04:57:18.388Z,26.50
2023-07-12T04:59:49.152Z,26.52
2023-07-12T05:02:19.935Z,26.53
2023-07-12T05:04:50.646Z,26.53
2023-07-12T05:07:21.372Z,26.54
2023-07-12T05:09:52.152Z,26.58
2023-07-12T05:12:22.783Z,26.60
2023-07-12T05:14:54.105Z,26.63
2023-07-12T05:17:24.871Z,26.63
2023-07-12T05:19:55.623Z,26.62
2023-07-12T05:22:26.847Z,26.62
2023-07-12T05:24:57.568Z,26.64
2023-07-12T05:27:28.992Z,26.67
2023-07-12T05:29:59.717Z,26.69
2023-07-12T05:32:30.424Z,26.70
2023-07-12T05:35:01.069Z,26.70
2023-07-12T05:37:34.020Z,26.73
2023-07-12T05:40:06.571Z,26.74
2023-07-12T05:42:41.542Z,26.74
2023-07-12T05:45:15.299Z,26.76
2023-07-12T05:47:48.345Z,26.79
2023-07-12T05:50:22.365Z,26.82
2023-07-12T05:52:53.097Z,26.86
2023-07-12T05:55:24.028Z,26.90
2023-07-12T05:57:54.741Z,26.93
2023-07-12T06:00:25.987Z,27.00
2023-07-12T06:02:56.823Z,27.07
2023-07-12T06:05:27.526Z,27.15
2023-07-12T06:07:58.188Z,27.26
2023-07-12T06:10:28.952Z,27.32
2023-07-12T06:13:00.553Z,27.38
2023-07-12T06:15:31.793Z,27.47
2023-07-12T06:18:03.252Z,27.56
2023-07-12T06:20:34.100Z,27.65
2023-07-12T06:23:04.872Z,27.74
2023-07-12T06:25:35.870Z,27.89
2023-07-12T06:28:07.326Z,28.03
2023-07-12T06:30:39.390Z,28.11
2023-07-12T06:33:10.355Z,28.14
2023-07-12T06:35:41.371Z,28.13
2023-07-12T06:38:12.326Z,28.13
2023-07-12T06:40:43.397Z,28.08
2023-07-12T06:43:14.851Z,27.99
2023-07-12T06:45:48.822Z,27.91
2023-07-12T06:48:19.456Z,27.88
2023-07-12T06:50:50.197Z,27.87
2023-07-12T06:53:21.407Z,27.87
2023-07-12T06:55:52.033Z,27.87
2023-07-12T06:58:22.691Z,27.82
2023-07-12T07:00:53.400Z,27.79
2023-07-12T07:03:24.146Z,27.80
2023-07-12T07:05:57.943Z,27.90
2023-07-12T07:08:30.828Z,28.14
2023-07-12T07:11:03.859Z,28.55
2023-07-12T07:13:34.889Z,28.90
2023-07-12T07:16:06.025Z,29.01
2023-07-12T07:18:36.878Z,29.10
2023-07-12T07:21:08.311Z,29.06
2023-07-12T07:23:37.657Z,28.96
2023-07-12T07:26:11.768Z,28.89
2023-07-12T07:28:43.487Z,28.87
2023-07-12T07:31:14.647Z,28.82
2023-07-12T07:33:45.340Z,28.76
2023-07-12T07:36:17.339Z,28.66
2023-07-12T07:38:48.144Z,28.53
2023-07-12T07:41:18.993Z,28.47
2023-07-12T07:43:50.301Z,28.44
2023-07-12T07:46:22.316Z,28.42
2023-07-12T07:48:53.193Z,28.43
2023-07-12T07:51:24.446Z,28.45
2023-07-12T07:53:57.370Z,28.41
2023-07-12T07:56:28.740Z,28.30
2023-07-12T07:59:00.650Z,28.22
2023-07-12T08:01:31.505Z,28.12
2023-07-12T08:04:02.556Z,28.01
2023-07-12T08:06:34.613Z,27.91
2023-07-12T08:09:05.525Z,27.84
2023-07-12T08:11:36.984Z,27.83
2023-07-12T08:14:06.455Z,27.88
2023-07-12T08:16:38.888Z,27.95
2023-07-12T08:19:17.806Z,27.99
2023-07-12T08:21:50.556Z,28.02
2023-07-12T08:24:21.656Z,27.99
2023-07-12T08:27:06.010Z,27.96
2023-07-12T08:29:38.316Z,27.94
2023-07-12T08:32:11.176Z,27.93
2023-07-12T08:34:42.196Z,27.89
2023-07-12T08:37:13.149Z,27.88
2023-07-12T08:39:44.242Z,27.86
2023-07-12T08:42:23.538Z,27.85
2023-07-12T08:44:55.552Z,27.89
2023-07-12T08:47:32.038Z,27.90
2023-07-12T08:50:02.941Z,27.92
2023-07-12T08:52:36.390Z,27.90
2023-07-12T08:55:14.783Z,27.87
2023-07-12T08:57:45.571Z,27.89
2023-07-12T09:00:23.178Z,27.92
2023-07-12T09:02:54.079Z,28.04
2023-07-12T09:05:26.718Z,28.24
2023-07-12T09:08:02.192Z,28.44
2023-07-12T09:10:36.484Z,28.71
2023-07-12T09:13:09.082Z,29.04
2023-07-12T09:15:42.145Z,29.37
2023-07-12T09:18:26.504Z,29.56
2023-07-12T09:20:59.125Z,29.68
2023-07-12T09:23:39.109Z,29.83
2023-07-12T09:26:14.427Z,30.07
2023-07-12T09:28:46.041Z,30.17
2023-07-12T09:31:22.265Z,30.26
2023-07-12T09:33:59.887Z,30.41
2023-07-12T09:36:31.223Z,30.40
2023-07-12T09:39:06.578Z,30.31
2023-07-12T09:41:37.911Z,30.17
2023-07-12T09:44:10.690Z,30.00
2023-07-12T09:46:48.107Z,29.91
2023-07-12T09:49:22.521Z,29.87
2023-07-12T09:52:02.427Z,29.86
2023-07-12T09:54:47.770Z,29.95
2023-07-12T09:57:23.911Z,29.94
2023-07-12T10:00:02.539Z,29.94
2023-07-12T10:03:12.823Z,29.91
2023-07-12T10:05:49.250Z,30.00
2023-07-12T10:08:23.372Z,30.23
2023-07-12T10:11:00.552Z,30.46
2023-07-12T10:13:41.726Z,30.74
2023-07-12T10:16:18.269Z,30.87
2023-07-12T10:18:51.022Z,30.96
2023-07-12T10:21:27.006Z,31.15
2023-07-12T10:24:01.033Z,31.07
2023-07-12T10:26:32.975Z,30.90
2023-07-12T10:29:10.141Z,30.75
2023-07-12T10:31:50.195Z,30.82
2023-07-12T10:34:30.055Z,30.85
2023-07-12T10:37:07.481Z,30.87
2023-07-12T10:39:39.121Z,30.88
2023-07-12T10:42:13.384Z,30.99
2023-07-12T10:44:50.342Z,31.16
2023-07-12T10:47:23.216Z,31.16
2023-07-12T10:50:01.907Z,31.26
2023-07-12T10:52:34.909Z,31.26
2023-07-12T10:55:24.035Z,31.18
2023-07-12T10:58:14.859Z,31.06
2023-07-12T11:00:54.488Z,30.83
2023-07-12T11:03:40.923Z,30.57
2023-07-12T11:06:25.149Z,30.32
2023-07-12T11:09:10.078Z,30.09
2023-07-12T11:11:51.693Z,29.78
2023-07-12T11:14:26.821Z,29.51
2023-07-12T11:17:15.911Z,29.32
2023-07-12T11:20:03.893Z,28.98
2023-07-12T11:22:59.483Z,28.66
2023-07-12T11:25:59.234Z,28.36
2023-07-12T11:28:41.757Z,28.25
2023-07-12T11:31:42.901Z,28.24
2023-07-12T11:34:19.185Z,28.37
2023-07-12T11:36:54.592Z,28.52
2023-07-12T11:39:28.534Z,28.65
2023-07-12T11:42:01.338Z,28.67
2023-07-12T11:44:32.109Z,28.72
2023-07-12T11:47:03.491Z,28.83
2023-07-12T11:49:34.869Z,28.90
2023-07-12T11:52:16.864Z,28.90
2023-07-12T11:54:48.786Z,28.93
2023-07-12T11:57:19.626Z,28.90
2023-07-12T11:59:53.398Z,28.96
2023-07-12T12:02:25.595Z,28.97
2023-07-12T12:05:00.969Z,29.08
2023-07-12T12:07:38.782Z,29.28
2023-07-12T12:10:09.520Z,29.51
2023-07-12T12:12:42.533Z,29.68
2023-07-12T12:15:22.862Z,29.79
2023-07-12T12:17:55.825Z,29.85
2023-07-12T12:20:30.824Z,29.87
2023-07-12T12:23:14.962Z,29.93
2023-07-12T12:25:50.956Z,29.92
2023-07-12T12:28:28.746Z,29.72
2023-07-12T12:31:17.799Z,29.57
2023-07-12T12:33:52.605Z,29.41
2023-07-12T12:36:26.383Z,29.32
2023-07-12T12:39:02.873Z,29.25
2023-07-12T12:41:41.119Z,29.18
2023-07-12T12:44:18.902Z,29.11
2023-07-12T12:55:12.595Z,29.09
2023-07-12T13:05:33.818Z,29.32
2023-07-12T13:21:14.788Z,29.66
2023-07-12T13:23:46.685Z,29.55
2023-07-12T13:26:19.546Z,29.46
2023-07-12T13:28:50.602Z,29.39
2023-07-12T13:31:24.494Z,29.38
2023-07-12T13:33:56.090Z,29.37
2023-07-12T13:36:33.265Z,29.44
2023-07-12T13:47:01.501Z,29.89
2023-07-12T13:49:32.505Z,29.94
2023-07-12T13:52:03.285Z,29.98
2023-07-12T13:54:34.217Z,30.05
2023-07-12T13:57:10.263Z,30.12
2023-07-12T13:59:42.682Z,30.15
2023-07-12T14:10:17.704Z,30.04
2023-07-12T14:12:50.454Z,30.00
2023-07-12T14:15:24.569Z,29.98
2023-07-12T14:17:56.875Z,30.01
2023-07-12T14:20:28.421Z,30.05
2023-07-12T14:22:59.446Z,30.07
2023-07-12T14:25:30.321Z,30.02
2023-07-12T14:28:02.576Z,29.94
2023-07-12T14:33:30.549Z,29.87
2023-07-12T14:36:01.828Z,29.85
2023-07-12T14:38:32.664Z,29.86
2023-07-12T14:41:04.536Z,29.84
2023-07-12T14:43:35.573Z,29.73
2023-07-12T14:46:06.346Z,29.62
2023-07-12T14:48:37.201Z,29.53
2023-07-12T14:51:12.029Z,29.45
2023-07-12T14:53:42.741Z,29.38
2023-07-12T14:56:13.791Z,29.30
2023-07-12T14:58:44.798Z,29.24
2023-07-12T15:01:24.482Z,29.20
2023-07-12T15:03:57.385Z,29.15
2023-07-12T15:06:28.612Z,29.09
2023-07-12T15:11:33.828Z,29.10
2023-07-12T15:14:05.008Z,29.09
2023-07-12T15:16:35.911Z,29.09
2023-07-12T15:19:06.838Z,29.10
2023-07-12T15:21:38.037Z,29.08
2023-07-12T15:24:13.948Z,29.05
2023-07-12T15:26:44.827Z,29.04
2023-07-12T15:29:15.623Z,29.02
2023-07-12T15:31:46.366Z,29.01
2023-07-12T15:34:17.013Z,29.01
2023-07-12T15:36:47.745Z,29.01
2023-07-12T15:39:18.490Z,29.04
2023-07-12T15:41:49.857Z,29.05
2023-07-12T15:44:20.706Z,29.06
2023-07-12T15:46:51.733Z,29.09
2023-07-12T15:49:22.440Z,29.06
2023-07-12T15:51:53.234Z,29.01
2023-07-12T15:54:27.481Z,28.93
2023-07-12T15:56:59.442Z,28.85
2023-07-12T15:59:30.407Z,28.80
2023-07-12T16:02:01.344Z,28.77
2023-07-12T16:04:32.616Z,28.75
2023-07-12T16:07:03.400Z,28.78
2023-07-12T16:09:34.212Z,28.82
2023-07-12T16:12:06.597Z,28.89
2023-07-12T16:14:37.356Z,28.90
2023-07-12T16:17:18.186Z,28.88
2023-07-12T16:19:49.015Z,28.87
2023-07-12T16:22:23.215Z,28.85
2023-07-12T16:24:54.169Z,28.81
2023-07-12T16:27:24.914Z,28.74
2023-07-12T16:29:55.824Z,28.69
2023-07-12T16:32:27.024Z,28.63
2023-07-12T16:34:57.970Z,28.59
2023-07-12T16:37:30.563Z,28.54
2023-07-12T16:40:01.575Z,28.52
2023-07-12T16:42:35.995Z,28.51
2023-07-12T16:45:13.292Z,28.49
2023-07-12T16:47:44.551Z,28.49
2023-07-12T16:50:15.740Z,28.49
2023-07-12T16:52:46.449Z,28.48
2023-07-12T16:55:21.756Z,28.47
2023-07-12T16:57:52.518Z,28.47
2023-07-12T17:00:23.845Z,28.45
2023-07-12T17:02:54.699Z,28.43
2023-07-12T17:05:25.849Z,28.43
2023-07-12T17:07:56.578Z,28.41
2023-07-12T17:10:27.309Z,28.39
2023-07-12T17:12:58.184Z,28.38
2023-07-12T17:15:29.090Z,28.38
2023-07-12T17:18:01.035Z,28.38
2023-07-12T17:20:33.897Z,28.37
2023-07-12T17:23:11.530Z,28.35
2023-07-12T17:25:40.608Z,28.32
2023-07-12T17:28:18.383Z,28.33
2023-07-12T17:30:50.194Z,28.30
2023-07-12T17:33:23.000Z,28.29
2023-07-12T17:35:54.041Z,28.27
2023-07-12T17:38:25.772Z,28.22
2023-07-12T17:40:58.267Z,28.19
2023-07-12T17:43:31.501Z,28.18
2023-07-12T17:46:02.314Z,28.17
2023-07-12T17:48:33.595Z,28.15
2023-07-12T17:51:13.034Z,28.12
2023-07-12T17:53:46.178Z,28.07
2023-07-12T17:56:17.522Z,28.04
2023-07-12T17:58:48.923Z,28.00
2023-07-12T18:01:22.690Z,27.98
2023-07-12T18:03:54.650Z,27.97
2023-07-12T18:06:27.176Z,27.94
2023-07-12T18:08:58.520Z,27.90
2023-07-12T18:11:43.961Z,27.88
2023-07-12T18:14:20.144Z,27.84
2023-07-12T18:16:52.427Z,27.81
2023-07-12T18:19:23.911Z,27.79
2023-07-12T18:21:54.699Z,27.78
2023-07-12T18:24:27.087Z,27.77
2023-07-12T18:26:58.041Z,27.77
2023-07-12T18:29:30.055Z,27.76
2023-07-12T18:32:00.827Z,27.77
2023-07-12T18:34:32.036Z,27.76
2023-07-12T18:37:02.775Z,27.75
2023-07-12T18:39:33.648Z,27.74
2023-07-12T18:42:10.567Z,27.72
2023-07-12T18:44:41.748Z,27.65
2023-07-12T18:47:13.288Z,27.59
2023-07-12T18:49:46.281Z,27.55
2023-07-12T18:52:20.608Z,27.52
2023-07-12T18:54:52.516Z,27.48
2023-07-12T18:57:23.215Z,27.45
2023-07-12T18:59:54.553Z,27.40
2023-07-12T19:02:26.461Z,27.35
2023-07-12T19:04:57.286Z,27.31
2023-07-12T19:07:30.871Z,27.26
2023-07-12T19:10:01.672Z,27.22
2023-07-12T19:12:32.357Z,27.15
2023-07-12T19:15:03.560Z,27.10
2023-07-12T19:17:35.281Z,27.06
2023-07-12T19:20:07.447Z,27.01
2023-07-12T19:22:38.541Z,26.97
2023-07-12T19:25:17.328Z,26.95
2023-07-12T19:27:48.132Z,26.93
2023-07-12T19:30:22.090Z,26.90
2023-07-12T19:32:52.952Z,26.87
2023-07-12T19:35:26.517Z,26.85
2023-07-12T19:37:57.907Z,26.78
2023-07-12T19:40:31.799Z,26.72
2023-07-12T19:43:02.583Z,26.68
2023-07-12T19:45:33.988Z,26.65
2023-07-12T19:48:07.089Z,26.63
2023-07-12T19:50:37.833Z,26.62
2023-07-12T19:53:26.991Z,26.59
2023-07-12T19:55:58.604Z,26.55
2023-07-12T19:58:29.477Z,26.49
2023-07-12T20:01:01.168Z,26.45
2023-07-12T20:03:30.465Z,26.44
2023-07-12T20:06:01.382Z,26.41
2023-07-12T20:08:32.174Z,26.38
2023-07-12T20:11:02.796Z,26.36
2023-07-12T20:13:33.927Z,26.35
2023-07-12T20:16:05.699Z,26.34
2023-07-12T20:18:37.474Z,26.32
2023-07-12T20:21:08.790Z,26.28
2023-07-12T20:23:39.913Z,26.25
2023-07-12T20:26:11.860Z,26.24
2023-07-12T20:28:43.157Z,26.24
2023-07-12T20:31:16.006Z,26.24
2023-07-12T20:33:47.716Z,26.24
2023-07-12T20:36:18.916Z,26.23
2023-07-12T20:38:49.644Z,26.22
2023-07-12T20:41:20.519Z,26.21
2023-07-12T20:43:51.158Z,26.19
2023-07-12T20:46:22.445Z,26.18
2023-07-12T20:48:53.273Z,26.16
2023-07-12T20:51:25.821Z,26.11
2023-07-12T20:53:56.761Z,26.08
2023-07-12T20:56:28.159Z,26.04
2023-07-12T20:58:59.535Z,25.97
2023-07-12T21:01:31.987Z,25.91
2023-07-12T21:04:02.788Z,25.90
2023-07-12T21:06:33.879Z,25.87
2023-07-12T21:09:06.489Z,25.84
2023-07-12T21:11:37.467Z,25.83
2023-07-12T21:14:08.161Z,25.82
2023-07-12T21:16:39.114Z,25.83
2023-07-12T21:19:10.040Z,25.83
2023-07-12T21:21:40.815Z,25.84
2023-07-12T21:24:18.292Z,25.83
2023-07-12T21:26:49.142Z,25.83
2023-07-12T21:29:19.952Z,25.81
2023-07-12T21:31:51.347Z,25.80
2023-07-12T21:34:22.060Z,25.79
2023-07-12T21:36:52.800Z,25.77
2023-07-12T21:39:23.653Z,25.75
2023-07-12T21:41:54.534Z,25.73
2023-07-12T21:44:25.304Z,25.71
2023-07-12T21:46:56.117Z,25.70
2023-07-12T21:49:26.932Z,25.68
2023-07-12T21:51:57.651Z,25.66
2023-07-12T21:54:28.564Z,25.64
2023-07-12T21:56:59.376Z,25.61
2023-07-12T21:59:30.185Z,25.58
2023-07-12T22:02:00.933Z,25.53
2023-07-12T22:04:31.714Z,25.41
2023-07-12T22:07:02.496Z,25.37
2023-07-12T22:09:33.266Z,25.35
2023-07-12T22:12:04.297Z,25.35
2023-07-12T22:14:36.412Z,25.36
2023-07-12T22:17:09.327Z,25.36
2023-07-12T22:19:40.170Z,25.38
2023-07-12T22:22:12.080Z,25.37
2023-07-12T22:24:43.807Z,25.34
2023-07-12T22:27:14.474Z,25.23
2023-07-12T22:29:45.766Z,25.26
2023-07-12T22:32:16.511Z,25.26
2023-07-12T22:34:47.573Z,25.25
2023-07-12T22:37:18.543Z,25.22
2023-07-12T22:39:49.324Z,25.18
2023-07-12T22:42:20.071Z,25.07
2023-07-12T22:44:51.440Z,24.99
2023-07-12T22:47:22.240Z,24.95
2023-07-12T22:49:54.347Z,24.94
2023-07-12T22:52:26.092Z,24.93
2023-07-12T22:54:57.154Z,24.92
2023-07-12T22:57:27.971Z,24.91
2023-07-12T22:59:58.715Z,24.89
2023-07-12T23:02:29.928Z,24.88
2023-07-12T23:05:00.846Z,24.86
2023-07-12T23:07:31.703Z,24.82
2023-07-12T23:10:02.352Z,24.77
2023-07-12T23:12:33.112Z,24.73
2023-07-12T23:15:05.303Z,24.66
2023-07-12T23:17:36.682Z,24.59
2023-07-12T23:20:12.573Z,24.48
2023-07-12T23:22:43.781Z,24.35
2023-07-12T23:25:26.743Z,24.32
2023-07-12T23:27:58.457Z,24.35
2023-07-12T23:30:29.605Z,24.38
2023-07-12T23:33:03.402Z,24.42
2023-07-12T23:35:35.175Z,24.46
2023-07-12T23:38:06.666Z,24.50
2023-07-12T23:40:38.930Z,24.54
2023-07-12T23:43:10.056Z,24.56
2023-07-12T23:45:40.838Z,24.56
2023-07-12T23:48:12.129Z,24.53
2023-07-12T23:50:42.816Z,24.51
2023-07-12T23:53:15.253Z,24.53
2023-07-12T23:55:46.128Z,24.50
2023-07-12T23:58:17.625Z,24.54
